Walnut Ridge Regional, AR

1:01 PM CDT on July 30, 2014 (GMT -0500)
Walnut Ridge Regional (KARG) Elev 272 ft | 36.12 °N, 90.93 °W | Change Station

Current weather conditions updated 6 minutes ago

Partly Cloudy
Partly Cloudy
79 °F
Feels Like 79 °F
N
10
Wind Variable Wind from South

Today is forecast to be nearly the same temperature as yesterday. Thunderstorms likely early tonight.

Today
High -- | Low -- °F
--% Chance of Precip.
Yesterday
High -- | Low -- °F
Precip. -- in
6:09 AM 8:10 PM
Waxing Crescent, 13% visible
Pressure 30.09 in
Visibility 10.0 miles
Clouds Few 7000 ft
Dew Point 57 °F
Humidity 47%
Rainfall 0.00 in
Snow Depth Not available.
UV 11 out of 12
Pollen 6.10 out of 12
Air Quality Not available.
Flu Activity Not available.
METAR KARG 301755Z AUTO 18009KT 10SM FEW070 26/14 A3009 RMK AO1 10270 20180 57007

More Conditions Fewer Conditions

Pressure 30.09 in
Visibility 10.0 miles
Clouds Few 7000 ft
Dew Point 57 °F
Humidity 47%
Rainfall 0.00 in
Snow Depth Not available.
UV 11 out of 12
Pollen 6.10 out of 12
Air Quality Not available.
Flu Activity Not available.
METAR KARG 301755Z AUTO 18009KT 10SM FEW070 26/14 A3009 RMK AO1 10270 20180 57007

More Conditions Fewer Conditions

10-Day Weather Forecast

Almanac

Astronomy

Jul. 30, 2014 Rise Set
Actual Time 6:09 AM CDT 8:10 PM CDT
Civil Twilight 5:40 AM CDT 8:38 PM CDT
Nautical Twilight 5:06 AM CDT 9:13 PM CDT
Astronomical Twilight 4:28 AM CDT 9:50 PM CDT
Moon 9:33 AM CDT 10:01 PM CDT
Length of Visible Light 14h 58m
Length of Day
14h 01m
Tomorrow will be 1m 40s shorter.
Waxing Crescent, 13% of the Moon is Illuminated
Today
Waxing Crescent
Aug 3
First Quarter
Aug 10
Full
Aug 17
Last Quarter
Aug 25
New

Today's Extremes

State Highs State Lows

Community

WunderPhotos

Upload Photos

1,739,147 photos uploaded!

Nearby

Snow Depth

Station Depth Elevation
No new snow has been reported.

Earthquake Activity

City Distance Mag. Time & Date
No recent earthquake activity has been reported nearby.
Minimum magnitude displayed is 2.5.

Coastal Water Temperatures

Place Temperature
No Stations Reporting

Nearby Weather Stations

Station Location Temp. Heat Index Dew Point Humidity Wind Precip. Elev Updated Type
MesoWest MINTRN , Minturn, AR 81 °F 79 °F - - North  at  - 0.00 in / hr 259 ft 12:10 PM CDT MADIS
Rural Ravenden Springs, Ravenden Springs, AR 74.1 °F 77 °F 46 °F 36% West  at  0.0 mph 0.00 in / hr 605 ft 1:01 PM CDT Rapid Fire
MesoWest KNOBEL , Peach Orchard, AR 74 °F 72 °F - - North  at  - 0.00 in / hr 290 ft 12:05 PM CDT MADIS
MesoWest JNSBRO , Jonesboro, AR 89 °F 86 °F - - North  at  - 0.00 in / hr 285 ft 11:40 AM CDT MADIS
William White Subdivision, Paragould, AR 81.5 °F 83 °F 64 °F 55% SSE  at  5.6 mph 0.00 in / hr 331 ft 1:01 PM CDT Rapid Fire
MesoWest BETHEL , Brookland, AR 79 °F 77 °F - - North  at  - 0.00 in / hr 288 ft 11:35 AM CDT MADIS

Show More Stations Show Fewer Stations